createdAt,value
2018-05-07T00:01:46.479Z,94.80
2018-05-07T00:06:55.732Z,95.30
2018-05-07T00:09:23.455Z,95.00
2018-05-07T00:11:51.289Z,95.00
2018-05-07T00:14:20.719Z,95.40
2018-05-07T00:16:48.639Z,95.30
2018-05-07T00:19:31.734Z,95.80
2018-05-07T00:21:59.679Z,95.30
2018-05-07T00:24:28.505Z,95.40
2018-05-07T00:26:56.408Z,95.40
2018-05-07T00:29:24.261Z,95.60
2018-05-07T00:31:52.127Z,95.50
2018-05-07T00:34:19.961Z,96.10
2018-05-07T00:36:48.571Z,96.50
2018-05-07T00:39:17.154Z,96.30
2018-05-07T00:41:44.981Z,96.30
2018-05-07T00:44:13.705Z,96.50
2018-05-07T00:46:41.666Z,96.40
2018-05-07T00:49:09.732Z,96.30
2018-05-07T00:51:37.730Z,96.30
2018-05-07T00:54:05.570Z,96.50
2018-05-07T00:56:33.822Z,96.70
2018-05-07T00:59:01.816Z,96.70
2018-05-07T01:01:29.693Z,96.60
2018-05-07T01:03:57.512Z,96.80
2018-05-07T01:06:25.347Z,96.90
2018-05-07T01:08:53.218Z,97.10
2018-05-07T01:11:21.106Z,97.40
2018-05-07T01:13:50.205Z,97.30
2018-05-07T01:16:18.026Z,97.70
2018-05-07T01:18:45.973Z,97.50
2018-05-07T01:21:13.878Z,97.60
2018-05-07T01:23:41.781Z,97.60
2018-05-07T01:26:09.588Z,97.60
2018-05-07T01:28:37.447Z,97.70
2018-05-07T01:31:06.030Z,98.00
2018-05-07T01:33:33.979Z,98.00
2018-05-07T01:36:02.614Z,98.20
2018-05-07T01:38:30.475Z,98.20
2018-05-07T01:40:58.308Z,98.30
2018-05-07T01:43:26.912Z,99.00
2018-05-07T01:45:54.778Z,99.00
2018-05-07T01:48:22.609Z,99.10
2018-05-07T01:50:51.198Z,98.80
2018-05-07T01:53:21.665Z,98.80
2018-05-07T01:55:49.757Z,98.60
2018-05-07T01:58:17.714Z,98.70
2018-05-07T02:00:45.541Z,98.90
2018-05-07T02:03:13.561Z,98.90
2018-05-07T02:05:41.463Z,98.80
2018-05-07T02:08:10.056Z,99.60
2018-05-07T02:10:38.653Z,99.50
2018-05-07T02:13:06.485Z,99.50
2018-05-07T02:15:34.315Z,99.40
2018-05-07T02:18:02.384Z,99.30
2018-05-07T02:20:30.204Z,99.30
2018-05-07T02:22:58.066Z,99.60
2018-05-07T02:25:25.875Z,99.50
2018-05-07T02:27:53.736Z,99.30
2018-05-07T02:30:21.596Z,99.90
2018-05-07T02:36:32.779Z,99.90
2018-05-07T02:39:00.596Z,99.90
2018-05-07T02:41:28.389Z,99.90
2018-05-07T02:43:56.204Z,99.90
2018-05-07T02:46:24.017Z,99.90
2018-05-07T02:48:51.840Z,99.90
2018-05-07T02:51:19.672Z,99.90
2018-05-07T02:53:50.811Z,99.90
2018-05-07T02:56:19.391Z,99.90
2018-05-07T02:58:47.385Z,99.90
2018-05-07T03:01:15.212Z,99.90
2018-05-07T03:03:43.032Z,99.90
2018-05-07T03:06:10.917Z,99.90
2018-05-07T03:08:38.780Z,99.90
2018-05-07T03:11:06.584Z,99.90
2018-05-07T03:13:34.473Z,99.90
2018-05-07T03:16:03.145Z,99.90
2018-05-07T03:18:31.047Z,99.90
2018-05-07T03:20:58.928Z,99.90
2018-05-07T03:23:26.736Z,99.90
2018-05-07T03:25:54.532Z,99.90
2018-05-07T03:28:22.354Z,99.90
2018-05-07T03:30:50.266Z,99.90
2018-05-07T03:33:18.148Z,99.90
2018-05-07T03:35:45.989Z,99.90
2018-05-07T03:38:14.600Z,99.90
2018-05-07T03:40:42.482Z,99.90
2018-05-07T03:43:10.381Z,99.90
2018-05-07T03:45:38.319Z,99.90
2018-05-07T03:48:06.146Z,99.90
2018-05-07T03:50:33.984Z,99.90
2018-05-07T03:53:01.795Z,99.90
2018-05-07T03:55:29.886Z,99.90
2018-05-07T03:57:57.731Z,99.90
2018-05-07T04:00:26.337Z,99.90
2018-05-07T04:02:54.158Z,99.90
2018-05-07T04:05:22.787Z,99.90
2018-05-07T04:07:50.611Z,99.90
2018-05-07T04:10:19.211Z,99.90
2018-05-07T04:12:47.051Z,99.90
2018-05-07T04:15:15.623Z,99.90
2018-05-07T04:17:49.346Z,99.90
2018-05-07T04:20:23.823Z,99.90
2018-05-07T04:22:57.475Z,99.90
2018-05-07T04:25:26.059Z,99.90
2018-05-07T04:27:54.790Z,99.90
2018-05-07T04:30:22.880Z,99.90
2018-05-07T04:32:50.771Z,99.90
2018-05-07T04:35:18.640Z,99.90
2018-05-07T04:37:46.539Z,99.90
2018-05-07T04:40:14.357Z,99.90
2018-05-07T04:42:42.147Z,99.90
2018-05-07T04:45:10.850Z,99.90
2018-05-07T04:47:38.687Z,99.90
2018-05-07T04:50:06.632Z,99.90
2018-05-07T04:52:34.535Z,99.90
2018-05-07T04:55:03.301Z,99.90
2018-05-07T04:57:33.328Z,99.90
2018-05-07T05:00:02.080Z,99.90
2018-05-07T05:02:29.953Z,99.90
2018-05-07T05:04:57.774Z,99.90
2018-05-07T05:07:25.752Z,99.90
2018-05-07T05:09:54.418Z,99.90
2018-05-07T05:12:22.251Z,99.90
2018-05-07T05:17:17.225Z,99.90
2018-05-07T05:19:45.153Z,99.90
2018-05-07T05:22:12.987Z,99.90
2018-05-07T05:24:40.997Z,99.90
2018-05-07T05:27:09.101Z,99.90
2018-05-07T05:29:37.804Z,99.90
2018-05-07T05:32:06.407Z,99.90
2018-05-07T05:34:34.257Z,99.90
2018-05-07T05:37:02.849Z,99.90
2018-05-07T05:39:30.684Z,99.90
2018-05-07T05:41:59.304Z,99.50
2018-05-07T05:47:17.156Z,99.80
2018-05-07T05:49:45.178Z,99.50
2018-05-07T05:52:13.786Z,99.30
2018-05-07T05:54:41.600Z,99.30
2018-05-07T05:57:09.538Z,98.70
2018-05-07T05:59:37.376Z,98.60
2018-05-07T06:02:05.978Z,98.80
2018-05-07T06:04:34.582Z,98.50
2018-05-07T06:07:02.409Z,98.50
2018-05-07T06:09:30.260Z,98.50
2018-05-07T06:11:58.868Z,98.10
2018-05-07T06:14:27.535Z,98.30
2018-05-07T06:16:55.325Z,98.30
2018-05-07T06:19:23.926Z,98.50
2018-05-07T06:21:51.792Z,98.40
2018-05-07T06:24:20.377Z,98.90
2018-05-07T06:26:48.198Z,99.20
2018-05-07T06:29:16.053Z,98.70
2018-05-07T06:31:43.903Z,98.40
2018-05-07T06:36:07.477Z,98.20
2018-05-07T06:38:35.332Z,97.80
2018-05-07T06:41:03.238Z,97.10
2018-05-07T06:43:31.100Z,96.00
2018-05-07T06:45:58.956Z,96.20
2018-05-07T06:48:26.776Z,95.40
2018-05-07T06:50:55.883Z,96.00
2018-05-07T06:53:24.163Z,94.90
2018-05-07T06:55:52.446Z,94.50
2018-05-07T06:58:20.671Z,94.30
2018-05-07T07:00:48.923Z,92.50
2018-05-07T07:03:17.136Z,92.20
2018-05-07T07:05:46.110Z,88.00
2018-05-07T07:08:14.385Z,87.90
2018-05-07T07:10:42.784Z,83.80
2018-05-07T07:13:11.840Z,73.40
2018-05-07T07:15:40.054Z,73.30
2018-05-07T07:18:09.040Z,68.40
2018-05-07T07:20:37.275Z,68.40
2018-05-07T07:23:05.475Z,66.60
2018-05-07T07:25:33.804Z,61.40
2018-05-07T07:28:01.872Z,58.30
2018-05-07T07:30:29.678Z,58.70
2018-05-07T07:32:57.529Z,60.90
2018-05-07T07:35:25.417Z,58.70
2018-05-07T07:37:54.287Z,57.20
2018-05-07T07:40:22.631Z,57.20
2018-05-07T07:42:50.819Z,55.60
2018-05-07T07:45:19.010Z,56.00
2018-05-07T07:47:47.278Z,54.90
2018-05-07T07:50:15.489Z,51.40
2018-05-07T07:52:43.498Z,48.90
2018-05-07T07:57:53.771Z,49.10
2018-05-07T08:00:22.485Z,50.30
2018-05-07T08:02:50.318Z,50.30
2018-05-07T08:05:18.942Z,47.80
2018-05-07T08:07:46.803Z,47.80
2018-05-07T08:10:14.770Z,49.70
2018-05-07T08:12:42.674Z,49.40
2018-05-07T08:15:10.476Z,47.50
2018-05-07T08:17:38.542Z,45.90
2018-05-07T08:20:07.525Z,46.80
2018-05-07T08:22:36.706Z,46.30
2018-05-07T08:25:04.653Z,46.30
2018-05-07T08:27:32.523Z,45.00
2018-05-07T08:30:00.369Z,46.60
2018-05-07T08:42:01.269Z,48.50
2018-05-07T08:44:29.139Z,46.90
2018-05-07T08:46:56.958Z,48.90
2018-05-07T08:49:24.795Z,49.50
2018-05-07T08:51:52.641Z,49.50
2018-05-07T08:54:21.358Z,49.10
2018-05-07T08:56:49.988Z,52.50
2018-05-07T09:02:15.739Z,51.00
2018-05-07T09:04:43.541Z,51.00
2018-05-07T09:07:11.390Z,52.90
2018-05-07T09:09:39.236Z,51.80
2018-05-07T09:12:07.829Z,52.90
2018-05-07T09:14:35.772Z,52.90
2018-05-07T09:17:03.614Z,52.50
2018-05-07T09:19:31.650Z,51.90
2018-05-07T09:21:59.619Z,52.50
2018-05-07T09:24:27.487Z,54.80
2018-05-07T09:26:55.309Z,53.50
2018-05-07T09:29:23.916Z,54.40
2018-05-07T09:31:53.656Z,53.50
2018-05-07T09:34:21.505Z,53.40
2018-05-07T09:36:49.352Z,53.40
2018-05-07T09:39:18.140Z,53.20
2018-05-07T09:41:45.997Z,53.10
2018-05-07T09:44:14.636Z,54.00
2018-05-07T09:46:42.503Z,53.90
2018-05-07T09:49:10.310Z,54.30
2018-05-07T09:51:38.122Z,53.60
2018-05-07T09:54:05.952Z,55.00
2018-05-07T09:56:42.804Z,54.60
2018-05-07T09:59:10.642Z,54.60
2018-05-07T10:01:38.523Z,55.40
2018-05-07T10:04:06.355Z,55.80
2018-05-07T10:06:34.238Z,55.70
2018-05-07T10:09:02.080Z,54.40
2018-05-07T10:11:29.963Z,54.10
2018-05-07T10:13:57.825Z,56.20
2018-05-07T10:16:25.696Z,55.10
2018-05-07T10:18:53.511Z,53.70
2018-05-07T10:21:21.545Z,54.70
2018-05-07T10:23:49.499Z,54.30
2018-05-07T10:26:17.377Z,53.50
2018-05-07T10:28:45.217Z,55.10
2018-05-07T10:31:13.156Z,54.00
2018-05-07T10:33:40.975Z,52.40
2018-05-07T10:36:08.794Z,53.60
2018-05-07T10:38:36.659Z,51.70
2018-05-07T10:45:40.222Z,52.30
2018-05-07T10:48:08.080Z,52.30
2018-05-07T10:50:36.677Z,53.30
2018-05-07T10:53:04.635Z,53.30
2018-05-07T10:55:32.548Z,51.90
2018-05-07T10:58:00.521Z,49.10
2018-05-07T11:00:28.420Z,50.20
2018-05-07T11:02:56.197Z,49.60
2018-05-07T11:05:24.037Z,50.90
2018-05-07T11:07:52.654Z,51.50
2018-05-07T11:10:21.288Z,49.80
2018-05-07T11:12:49.207Z,49.80
2018-05-07T11:15:17.841Z,49.90
2018-05-07T11:17:45.697Z,49.80
2018-05-07T11:20:13.539Z,50.80
2018-05-07T11:22:41.359Z,49.00
2018-05-07T11:25:09.954Z,47.90
2018-05-07T11:27:37.816Z,47.90
2018-05-07T11:30:06.806Z,48.00
2018-05-07T11:32:34.674Z,47.60
2018-05-07T11:35:02.577Z,47.90
2018-05-07T11:37:30.517Z,47.90
2018-05-07T11:39:59.291Z,49.50
2018-05-07T11:42:27.193Z,49.50
2018-05-07T11:44:55.046Z,47.40
2018-05-07T11:47:23.019Z,48.70
2018-05-07T11:49:50.737Z,49.30
2018-05-07T11:52:18.703Z,47.80
2018-05-07T11:54:46.517Z,48.10
2018-05-07T11:57:14.388Z,47.10
2018-05-07T11:59:42.351Z,45.40
2018-05-07T12:02:12.541Z,44.60
2018-05-07T12:04:40.352Z,44.60
2018-05-07T12:07:08.471Z,45.90
2018-05-07T12:09:51.459Z,45.10
2018-05-07T12:12:19.328Z,44.80
2018-05-07T12:14:47.256Z,44.80
2018-05-07T12:17:16.363Z,44.40
2018-05-07T12:19:44.289Z,44.30
2018-05-07T12:22:12.130Z,45.70
2018-05-07T12:24:40.945Z,44.70
2018-05-07T12:27:08.785Z,44.70
2018-05-07T12:29:36.630Z,46.90
2018-05-07T12:32:05.241Z,45.20
2018-05-07T12:34:33.236Z,45.10
2018-05-07T12:37:01.069Z,42.90
2018-05-07T12:39:28.898Z,43.50
2018-05-07T12:41:57.501Z,41.90
2018-05-07T12:44:25.348Z,41.80
2018-05-07T12:46:54.147Z,42.90
2018-05-07T12:55:46.705Z,43.70
2018-05-07T12:58:15.504Z,42.40
2018-05-07T13:00:43.305Z,42.40
2018-05-07T13:03:11.565Z,42.60
2018-05-07T13:05:40.202Z,42.40
2018-05-07T13:08:08.532Z,42.90
2018-05-07T13:10:36.958Z,41.30
2018-05-07T13:15:46.386Z,41.00
2018-05-07T13:18:14.299Z,39.60
2018-05-07T13:20:42.925Z,37.30
2018-05-07T13:23:10.793Z,37.20
2018-05-07T13:25:38.630Z,39.60
2018-05-07T13:28:07.291Z,37.40
2018-05-07T13:30:35.183Z,37.90
2018-05-07T13:33:03.794Z,34.80
2018-05-07T13:35:31.712Z,34.70
2018-05-07T13:37:59.540Z,36.30
2018-05-07T13:40:27.373Z,36.00
2018-05-07T13:42:55.980Z,33.50
2018-05-07T13:45:23.896Z,33.50
2018-05-07T13:47:51.859Z,32.90
2018-05-07T13:50:19.692Z,34.20
2018-05-07T13:52:47.606Z,33.50
2018-05-07T13:57:58.336Z,32.40
2018-05-07T14:00:26.181Z,31.40
2018-05-07T14:02:54.152Z,31.00
2018-05-07T14:05:24.681Z,31.50
2018-05-07T14:07:53.429Z,32.50
2018-05-07T14:10:21.261Z,32.40
2018-05-07T14:12:49.218Z,34.90
2018-05-07T14:15:17.070Z,32.30
2018-05-07T14:17:45.681Z,33.80
2018-05-07T14:20:13.520Z,33.80
2018-05-07T14:22:42.107Z,32.00
2018-05-07T14:25:10.704Z,33.90
2018-05-07T14:27:38.541Z,33.80
2018-05-07T14:30:06.355Z,34.10
2018-05-07T14:32:34.176Z,33.90
2018-05-07T14:35:02.787Z,32.00
2018-05-07T14:37:31.392Z,31.20
2018-05-07T14:39:59.228Z,31.10
2018-05-07T14:52:04.942Z,33.20
2018-05-07T14:54:32.801Z,32.40
2018-05-07T14:57:01.406Z,33.00
2018-05-07T14:59:29.272Z,33.00
2018-05-07T15:01:57.102Z,34.00
2018-05-07T15:04:25.100Z,35.90
2018-05-07T15:06:54.328Z,36.30
2018-05-07T15:09:22.142Z,36.70
2018-05-07T15:11:50.751Z,35.20
2018-05-07T15:14:23.478Z,35.20
2018-05-07T15:16:51.399Z,34.80
2018-05-07T15:19:19.243Z,35.10
2018-05-07T15:21:47.067Z,34.30
2018-05-07T15:24:15.068Z,34.70
2018-05-07T15:26:43.728Z,35.00
2018-05-07T15:29:11.581Z,35.00
2018-05-07T15:31:39.610Z,35.00
2018-05-07T15:34:08.270Z,36.50
2018-05-07T15:36:36.106Z,36.60
2018-05-07T15:46:04.288Z,36.40
2018-05-07T15:48:33.040Z,36.30
2018-05-07T15:51:00.886Z,36.30
2018-05-07T15:53:28.760Z,36.70
2018-05-07T15:55:56.629Z,35.60
2018-05-07T15:58:25.271Z,34.70
2018-05-07T16:00:53.248Z,34.90
2018-05-07T16:03:21.872Z,34.20
2018-05-07T16:05:49.675Z,34.20
2018-05-07T16:08:17.509Z,34.50
2018-05-07T16:10:45.348Z,34.20
2018-05-07T16:13:13.188Z,34.90
2018-05-07T16:15:41.853Z,35.70
2018-05-07T16:18:10.452Z,35.00
2018-05-07T16:20:39.079Z,34.70
2018-05-07T16:23:06.911Z,34.60
2018-05-07T16:25:34.743Z,34.20
2018-05-07T16:28:02.661Z,35.60
2018-05-07T16:30:30.439Z,34.90
2018-05-07T16:32:58.277Z,36.20
2018-05-07T16:35:26.191Z,36.50
2018-05-07T16:37:54.195Z,37.50
2018-05-07T16:40:22.976Z,36.90
2018-05-07T16:42:51.615Z,36.10
2018-05-07T16:45:19.370Z,36.10
2018-05-07T16:47:47.211Z,37.00
2018-05-07T16:50:15.825Z,37.70
2018-05-07T16:52:43.720Z,37.70
2018-05-07T16:55:11.584Z,37.90
2018-05-07T16:57:39.420Z,37.50
2018-05-07T17:00:07.259Z,38.40
2018-05-07T17:02:35.105Z,37.60
2018-05-07T17:05:03.734Z,38.70
2018-05-07T17:11:07.174Z,39.90
2018-05-07T17:13:34.981Z,39.70
2018-05-07T17:16:03.587Z,40.10
2018-05-07T17:18:31.449Z,40.10
2018-05-07T17:23:41.627Z,41.20
2018-05-07T17:26:09.489Z,41.20
2018-05-07T17:28:37.323Z,42.20
2018-05-07T17:31:05.184Z,42.50
2018-05-07T17:33:33.208Z,42.60
2018-05-07T17:36:02.068Z,43.40
2018-05-07T17:38:30.564Z,42.80
2018-05-07T17:40:59.156Z,43.00
2018-05-07T17:43:26.992Z,43.00
2018-05-07T17:46:01.580Z,44.00
2018-05-07T17:48:35.313Z,44.00
2018-05-07T17:51:03.182Z,44.60
2018-05-07T17:53:30.996Z,44.60
2018-05-07T17:55:59.035Z,45.50
2018-05-07T17:58:26.931Z,45.50
2018-05-07T18:00:54.795Z,46.00
2018-05-07T18:03:22.717Z,46.20
2018-05-07T18:05:50.585Z,45.70
2018-05-07T18:08:18.427Z,46.20
2018-05-07T18:10:46.418Z,46.20
2018-05-07T18:13:15.412Z,46.50
2018-05-07T18:15:43.258Z,46.80
2018-05-07T18:18:11.119Z,46.70
2018-05-07T18:25:40.628Z,46.90
2018-05-07T18:28:08.448Z,46.90
2018-05-07T18:30:36.271Z,47.00
2018-05-07T18:35:46.359Z,47.80
2018-05-07T18:40:42.339Z,48.40
2018-05-07T18:43:10.195Z,48.20
2018-05-07T18:45:38.452Z,48.80
2018-05-07T18:48:06.280Z,48.60
2018-05-07T18:50:34.278Z,48.80
2018-05-07T18:53:02.164Z,48.20
2018-05-07T18:55:30.110Z,48.20
2018-05-07T18:57:57.999Z,49.60
2018-05-07T19:00:25.879Z,49.10
2018-05-07T19:02:53.679Z,49.60
2018-05-07T19:05:21.704Z,49.60
2018-05-07T19:07:49.540Z,50.30
2018-05-07T19:10:17.371Z,49.80
2018-05-07T19:12:48.367Z,51.10
2018-05-07T19:15:16.371Z,51.10
2018-05-07T19:17:45.205Z,50.10
2018-05-07T19:20:13.036Z,50.10
2018-05-07T19:22:40.942Z,51.20
2018-05-07T19:25:08.855Z,50.10
2018-05-07T19:27:37.455Z,50.80
2018-05-07T19:30:06.040Z,51.70
2018-05-07T19:32:33.876Z,51.80
2018-05-07T19:35:02.884Z,51.70
2018-05-07T19:37:30.822Z,51.60
2018-05-07T19:39:58.676Z,52.30
2018-05-07T19:42:26.636Z,51.60
2018-05-07T19:44:54.474Z,51.50
2018-05-07T19:47:22.329Z,51.30
2018-05-07T19:52:21.420Z,52.50
2018-05-07T19:54:49.318Z,53.20
2018-05-07T19:57:17.199Z,53.60
2018-05-07T19:59:45.107Z,53.40
2018-05-07T20:02:12.969Z,53.80
2018-05-07T20:04:40.796Z,53.40
2018-05-07T20:07:08.931Z,55.20
2018-05-07T20:09:37.538Z,55.20
2018-05-07T20:12:06.120Z,55.70
2018-05-07T20:14:34.723Z,56.30
2018-05-07T20:17:02.692Z,56.30
2018-05-07T20:19:30.525Z,55.70
2018-05-07T20:21:58.418Z,55.70
2018-05-07T20:24:26.960Z,56.00
2018-05-07T20:26:54.813Z,55.70
2018-05-07T20:29:22.679Z,56.60
2018-05-07T20:31:51.748Z,57.20
2018-05-07T20:34:19.787Z,57.20
2018-05-07T20:36:48.523Z,58.80
2018-05-07T20:39:17.280Z,58.90
2018-05-07T20:41:45.928Z,59.10
2018-05-07T20:50:30.786Z,61.60
2018-05-07T20:52:58.669Z,61.00
2018-05-07T20:55:26.487Z,62.30
2018-05-07T20:57:54.337Z,62.60
2018-05-07T21:00:22.613Z,63.70
2018-05-07T21:02:53.215Z,64.80
2018-05-07T21:05:21.136Z,64.70
2018-05-07T21:17:00.889Z,68.30
2018-05-07T21:19:28.856Z,68.80
2018-05-07T21:21:57.495Z,70.80
2018-05-07T21:24:26.083Z,71.60
2018-05-07T21:26:54.692Z,72.60
2018-05-07T21:29:22.499Z,72.60
2018-05-07T21:31:51.229Z,74.30
2018-05-07T21:34:19.186Z,74.30
2018-05-07T21:40:32.420Z,77.00
2018-05-07T21:43:00.992Z,77.80
2018-05-07T21:45:29.691Z,78.30
2018-05-07T21:47:57.499Z,78.30
2018-05-07T21:50:25.533Z,78.70
2018-05-07T22:02:04.433Z,81.70
2018-05-07T22:04:32.327Z,81.70
2018-05-07T22:07:00.247Z,81.90
2018-05-07T22:09:29.162Z,81.60
2018-05-07T22:11:57.446Z,81.70
2018-05-07T22:14:25.338Z,81.80
2018-05-07T22:16:53.990Z,81.70
2018-05-07T22:19:22.596Z,82.80
2018-05-07T22:21:51.846Z,82.70
2018-05-07T22:24:19.772Z,84.20
2018-05-07T22:26:47.608Z,84.20
2018-05-07T22:29:15.474Z,83.80
2018-05-07T22:31:43.344Z,84.70
2018-05-07T22:34:11.980Z,84.30
2018-05-07T22:36:39.817Z,84.30
2018-05-07T22:39:07.713Z,85.10
2018-05-07T22:41:35.526Z,85.40
2018-05-07T22:44:04.115Z,85.50
2018-05-07T22:46:31.953Z,85.40
2018-05-07T22:51:42.652Z,80.30
2018-05-07T22:54:10.496Z,79.50
2018-05-07T22:56:53.790Z,80.60
2018-05-07T22:59:21.600Z,80.10
2018-05-07T23:01:49.404Z,79.90
2018-05-07T23:04:17.249Z,80.30
2018-05-07T23:06:45.891Z,81.30
2018-05-07T23:09:13.721Z,81.30
2018-05-07T23:11:41.566Z,82.20
2018-05-07T23:14:10.211Z,82.40
2018-05-07T23:16:38.183Z,82.30
2018-05-07T23:19:06.009Z,82.90
2018-05-07T23:21:33.847Z,84.00
2018-05-07T23:24:02.474Z,85.40
2018-05-07T23:26:30.352Z,85.30
2018-05-07T23:28:58.192Z,86.20
2018-05-07T23:31:26.013Z,86.40
2018-05-07T23:37:12.681Z,88.80
2018-05-07T23:39:40.516Z,88.90
2018-05-07T23:42:09.211Z,90.00
2018-05-07T23:44:37.090Z,90.00
2018-05-07T23:47:05.674Z,90.50
2018-05-07T23:49:34.329Z,91.00
2018-05-07T23:52:02.929Z,91.10
2018-05-07T23:54:31.527Z,90.90
2018-05-07T23:57:00.123Z,91.10
2018-05-07T23:59:28.003Z,91.20
